sensor_id;sensor_type;location;lat;lon;timestamp;P1;durP1;ratioP1;P2;durP2;ratioP2
4148;SDS011;2088;51.032;7.082;2022-07-01T00:00:59;7.57;;;5.17;;
4148;SDS011;2088;51.032;7.082;2022-07-01T00:03:27;5.40;;;2.87;;
4148;SDS011;2088;51.032;7.082;2022-07-01T00:05:53;10.73;;;4.93;;
4148;SDS011;2088;51.032;7.082;2022-07-01T00:08:20;5.97;;;3.40;;
4148;SDS011;2088;51.032;7.082;2022-07-01T00:10:46;3.83;;;2.87;;
4148;SDS011;2088;51.032;7.082;2022-07-01T00:13:14;3.93;;;2.67;;
4148;SDS011;2088;51.032;7.082;2022-07-01T00:15:40;2.57;;;2.33;;
4148;SDS011;2088;51.032;7.082;2022-07-01T00:18:07;3.17;;;2.70;;
4148;SDS011;2088;51.032;7.082;2022-07-01T00:20:35;3.03;;;2.67;;
4148;SDS011;2088;51.032;7.082;2022-07-01T00:23:01;2.70;;;2.50;;
4148;SDS011;2088;51.032;7.082;2022-07-01T00:25:28;5.70;;;3.23;;
4148;SDS011;2088;51.032;7.082;2022-07-01T00:27:54;2.73;;;2.53;;
4148;SDS011;2088;51.032;7.082;2022-07-01T00:30:21;5.50;;;2.67;;
4148;SDS011;2088;51.032;7.082;2022-07-01T00:32:48;3.20;;;2.90;;
4148;SDS011;2088;51.032;7.082;2022-07-01T00:35:18;5.30;;;4.13;;
4148;SDS011;2088;51.032;7.082;2022-07-01T00:37:46;5.67;;;3.20;;
4148;SDS011;2088;51.032;7.082;2022-07-01T00:40:12;10.83;;;3.80;;
4148;SDS011;2088;51.032;7.082;2022-07-01T00:42:40;6.50;;;3.93;;
4148;SDS011;2088;51.032;7.082;2022-07-01T00:45:07;3.73;;;3.43;;
4148;SDS011;2088;51.032;7.082;2022-07-01T00:47:35;7.07;;;2.70;;
4148;SDS011;2088;51.032;7.082;2022-07-01T00:50:02;3.30;;;3.00;;
4148;SDS011;2088;51.032;7.082;2022-07-01T00:52:32;4.83;;;3.70;;
4148;SDS011;2088;51.032;7.082;2022-07-01T00:55:00;2.93;;;2.60;;
4148;SDS011;2088;51.032;7.082;2022-07-01T00:57:30;5.47;;;3.57;;
4148;SDS011;2088;51.032;7.082;2022-07-01T00:59:57;5.17;;;3.00;;
4148;SDS011;2088;51.032;7.082;2022-07-01T01:02:24;7.63;;;3.20;;
4148;SDS011;2088;51.032;7.082;2022-07-01T01:04:51;3.30;;;1.90;;
4148;SDS011;2088;51.032;7.082;2022-07-01T01:07:17;3.60;;;2.03;;
4148;SDS011;2088;51.032;7.082;2022-07-01T01:09:44;2.97;;;2.40;;
4148;SDS011;2088;51.032;7.082;2022-07-01T01:12:12;8.23;;;4.13;;
4148;SDS011;2088;51.032;7.082;2022-07-01T01:14:43;3.03;;;2.43;;
4148;SDS011;2088;51.032;7.082;2022-07-01T01:17:10;3.70;;;2.70;;
4148;SDS011;2088;51.032;7.082;2022-07-01T01:19:37;4.03;;;2.90;;
4148;SDS011;2088;51.032;7.082;2022-07-01T01:22:05;3.17;;;2.07;;
4148;SDS011;2088;51.032;7.082;2022-07-01T01:24:31;4.07;;;3.67;;
4148;SDS011;2088;51.032;7.082;2022-07-01T01:26:58;7.20;;;3.70;;
4148;SDS011;2088;51.032;7.082;2022-07-01T01:29:24;4.83;;;3.40;;
4148;SDS011;2088;51.032;7.082;2022-07-01T01:31:51;5.17;;;3.40;;
4148;SDS011;2088;51.032;7.082;2022-07-01T01:34:18;3.67;;;3.17;;
4148;SDS011;2088;51.032;7.082;2022-07-01T01:36:44;4.83;;;3.63;;
4148;SDS011;2088;51.032;7.082;2022-07-01T01:39:12;4.53;;;2.30;;
4148;SDS011;2088;51.032;7.082;2022-07-01T01:41:38;5.60;;;3.43;;
4148;SDS011;2088;51.032;7.082;2022-07-01T01:44:05;3.60;;;2.90;;
4148;SDS011;2088;51.032;7.082;2022-07-01T01:46:31;5.93;;;3.13;;
4148;SDS011;2088;51.032;7.082;2022-07-01T01:48:58;4.57;;;3.77;;
4148;SDS011;2088;51.032;7.082;2022-07-01T01:51:26;5.50;;;3.07;;
4148;SDS011;2088;51.032;7.082;2022-07-01T01:53:52;5.30;;;3.50;;
4148;SDS011;2088;51.032;7.082;2022-07-01T01:56:20;4.27;;;3.87;;
4148;SDS011;2088;51.032;7.082;2022-07-01T01:58:47;5.00;;;3.70;;
4148;SDS011;2088;51.032;7.082;2022-07-01T02:01:15;4.70;;;4.00;;
4148;SDS011;2088;51.032;7.082;2022-07-01T02:03:43;4.60;;;3.67;;
4148;SDS011;2088;51.032;7.082;2022-07-01T02:06:11;4.30;;;3.23;;
4148;SDS011;2088;51.032;7.082;2022-07-01T02:08:39;6.40;;;3.90;;
4148;SDS011;2088;51.032;7.082;2022-07-01T02:11:06;7.53;;;3.73;;
4148;SDS011;2088;51.032;7.082;2022-07-01T02:13:35;4.80;;;3.77;;
4148;SDS011;2088;51.032;7.082;2022-07-01T02:16:02;6.07;;;3.60;;
4148;SDS011;2088;51.032;7.082;2022-07-01T02:18:29;4.90;;;3.03;;
4148;SDS011;2088;51.032;7.082;2022-07-01T02:20:57;5.60;;;3.13;;
4148;SDS011;2088;51.032;7.082;2022-07-01T02:23:24;8.67;;;4.13;;
4148;SDS011;2088;51.032;7.082;2022-07-01T02:25:51;6.00;;;4.47;;
4148;SDS011;2088;51.032;7.082;2022-07-01T02:28:17;3.13;;;2.80;;
4148;SDS011;2088;51.032;7.082;2022-07-01T02:30:45;7.33;;;3.87;;
4148;SDS011;2088;51.032;7.082;2022-07-01T02:33:12;9.67;;;3.33;;
4148;SDS011;2088;51.032;7.082;2022-07-01T02:35:39;8.30;;;4.77;;
4148;SDS011;2088;51.032;7.082;2022-07-01T02:38:07;5.70;;;3.00;;
4148;SDS011;2088;51.032;7.082;2022-07-01T02:40:34;5.40;;;3.37;;
4148;SDS011;2088;51.032;7.082;2022-07-01T02:43:02;5.77;;;3.40;;
4148;SDS011;2088;51.032;7.082;2022-07-01T02:45:29;10.60;;;4.53;;
4148;SDS011;2088;51.032;7.082;2022-07-01T02:47:57;3.70;;;2.93;;
4148;SDS011;2088;51.032;7.082;2022-07-01T02:50:23;4.57;;;4.17;;
4148;SDS011;2088;51.032;7.082;2022-07-01T02:52:50;7.17;;;2.53;;
4148;SDS011;2088;51.032;7.082;2022-07-01T02:55:16;5.97;;;3.50;;
4148;SDS011;2088;51.032;7.082;2022-07-01T02:57:43;3.07;;;2.20;;
4148;SDS011;2088;51.032;7.082;2022-07-01T03:00:10;5.40;;;2.80;;
4148;SDS011;2088;51.032;7.082;2022-07-01T03:02:38;3.53;;;2.77;;
4148;SDS011;2088;51.032;7.082;2022-07-01T03:05:07;5.00;;;2.47;;
4148;SDS011;2088;51.032;7.082;2022-07-01T03:07:35;2.37;;;2.17;;
4148;SDS011;2088;51.032;7.082;2022-07-01T03:10:02;2.83;;;2.40;;
4148;SDS011;2088;51.032;7.082;2022-07-01T03:12:29;6.30;;;3.20;;
4148;SDS011;2088;51.032;7.082;2022-07-01T03:15:00;4.67;;;2.13;;
4148;SDS011;2088;51.032;7.082;2022-07-01T03:17:29;2.90;;;2.47;;
4148;SDS011;2088;51.032;7.082;2022-07-01T03:19:57;1.60;;;1.50;;
4148;SDS011;2088;51.032;7.082;2022-07-01T03:22:26;3.60;;;1.67;;
4148;SDS011;2088;51.032;7.082;2022-07-01T03:24:54;15.10;;;3.10;;
4148;SDS011;2088;51.032;7.082;2022-07-01T03:27:22;1.93;;;1.83;;
4148;SDS011;2088;51.032;7.082;2022-07-01T03:29:49;2.77;;;2.03;;
4148;SDS011;2088;51.032;7.082;2022-07-01T03:32:16;5.40;;;2.60;;
4148;SDS011;2088;51.032;7.082;2022-07-01T03:34:43;2.07;;;1.97;;
4148;SDS011;2088;51.032;7.082;2022-07-01T03:37:11;1.70;;;1.50;;
4148;SDS011;2088;51.032;7.082;2022-07-01T03:39:41;1.70;;;1.47;;
4148;SDS011;2088;51.032;7.082;2022-07-01T03:42:08;1.63;;;1.40;;
4148;SDS011;2088;51.032;7.082;2022-07-01T03:44:36;1.50;;;1.40;;
4148;SDS011;2088;51.032;7.082;2022-07-01T03:47:03;2.03;;;1.50;;
4148;SDS011;2088;51.032;7.082;2022-07-01T03:49:31;2.33;;;1.40;;
4148;SDS011;2088;51.032;7.082;2022-07-01T03:51:58;1.40;;;1.30;;
4148;SDS011;2088;51.032;7.082;2022-07-01T03:54:25;1.70;;;1.60;;
4148;SDS011;2088;51.032;7.082;2022-07-01T03:56:59;1.93;;;1.43;;
4148;SDS011;2088;51.032;7.082;2022-07-01T03:59:27;3.67;;;1.87;;
4148;SDS011;2088;51.032;7.082;2022-07-01T04:01:54;2.50;;;1.50;;
4148;SDS011;2088;51.032;7.082;2022-07-01T04:04:21;2.30;;;1.87;;
4148;SDS011;2088;51.032;7.082;2022-07-01T04:06:47;2.23;;;2.03;;
4148;SDS011;2088;51.032;7.082;2022-07-01T04:09:15;4.07;;;2.37;;
4148;SDS011;2088;51.032;7.082;2022-07-01T04:11:42;3.83;;;2.60;;
4148;SDS011;2088;51.032;7.082;2022-07-01T04:14:10;1.80;;;1.60;;
4148;SDS011;2088;51.032;7.082;2022-07-01T04:16:38;2.20;;;1.60;;
4148;SDS011;2088;51.032;7.082;2022-07-01T04:19:04;2.20;;;1.90;;
4148;SDS011;2088;51.032;7.082;2022-07-01T04:21:31;3.47;;;2.83;;
4148;SDS011;2088;51.032;7.082;2022-07-01T04:24:15;1.50;;;1.40;;
4148;SDS011;2088;51.032;7.082;2022-07-01T04:26:42;21.47;;;2.30;;
4148;SDS011;2088;51.032;7.082;2022-07-01T04:29:11;1.50;;;1.40;;
4148;SDS011;2088;51.032;7.082;2022-07-01T04:31:37;4.47;;;2.70;;
4148;SDS011;2088;51.032;7.082;2022-07-01T04:34:04;1.70;;;1.60;;
4148;SDS011;2088;51.032;7.082;2022-07-01T04:36:31;2.90;;;1.77;;
4148;SDS011;2088;51.032;7.082;2022-07-01T04:38:58;9.70;;;3.90;;
4148;SDS011;2088;51.032;7.082;2022-07-01T04:41:24;1.20;;;1.07;;
4148;SDS011;2088;51.032;7.082;2022-07-01T04:44:08;5.83;;;3.20;;
4148;SDS011;2088;51.032;7.082;2022-07-01T04:46:36;1.60;;;1.50;;
4148;SDS011;2088;51.032;7.082;2022-07-01T04:49:03;1.60;;;1.50;;
4148;SDS011;2088;51.032;7.082;2022-07-01T04:51:29;1.63;;;1.53;;
4148;SDS011;2088;51.032;7.082;2022-07-01T04:53:59;1.60;;;1.10;;
4148;SDS011;2088;51.032;7.082;2022-07-01T04:56:25;1.97;;;1.77;;
4148;SDS011;2088;51.032;7.082;2022-07-01T04:58:53;2.70;;;1.60;;
4148;SDS011;2088;51.032;7.082;2022-07-01T05:01:20;4.00;;;2.73;;
4148;SDS011;2088;51.032;7.082;2022-07-01T05:03:48;1.80;;;1.63;;
4148;SDS011;2088;51.032;7.082;2022-07-01T05:06:15;1.53;;;1.30;;
4148;SDS011;2088;51.032;7.082;2022-07-01T05:08:42;1.50;;;1.20;;
4148;SDS011;2088;51.032;7.082;2022-07-01T05:11:08;2.43;;;1.17;;
4148;SDS011;2088;51.032;7.082;2022-07-01T05:13:35;2.03;;;1.57;;
4148;SDS011;2088;51.032;7.082;2022-07-01T05:16:03;4.67;;;2.33;;
4148;SDS011;2088;51.032;7.082;2022-07-01T05:18:31;1.97;;;1.77;;
4148;SDS011;2088;51.032;7.082;2022-07-01T05:21:16;1.30;;;1.07;;
4148;SDS011;2088;51.032;7.082;2022-07-01T05:24:00;1.77;;;1.37;;
4148;SDS011;2088;51.032;7.082;2022-07-01T05:26:27;1.70;;;1.40;;
4148;SDS011;2088;51.032;7.082;2022-07-01T05:28:53;1.80;;;1.60;;
4148;SDS011;2088;51.032;7.082;2022-07-01T05:31:20;3.30;;;1.50;;
4148;SDS011;2088;51.032;7.082;2022-07-01T05:33:47;1.50;;;1.27;;
4148;SDS011;2088;51.032;7.082;2022-07-01T05:36:14;3.27;;;1.60;;
4148;SDS011;2088;51.032;7.082;2022-07-01T05:38:42;8.60;;;1.67;;
4148;SDS011;2088;51.032;7.082;2022-07-01T05:41:08;1.10;;;1.00;;
4148;SDS011;2088;51.032;7.082;2022-07-01T05:43:35;2.17;;;1.97;;
4148;SDS011;2088;51.032;7.082;2022-07-01T05:46:01;2.00;;;1.70;;
4148;SDS011;2088;51.032;7.082;2022-07-01T05:48:28;1.30;;;1.13;;
4148;SDS011;2088;51.032;7.082;2022-07-01T05:50:54;2.20;;;1.70;;
4148;SDS011;2088;51.032;7.082;2022-07-01T05:53:21;1.17;;;1.07;;
4148;SDS011;2088;51.032;7.082;2022-07-01T05:55:49;1.20;;;1.10;;
4148;SDS011;2088;51.032;7.082;2022-07-01T05:58:16;3.37;;;2.43;;
4148;SDS011;2088;51.032;7.082;2022-07-01T06:00:43;6.77;;;1.73;;
4148;SDS011;2088;51.032;7.082;2022-07-01T06:03:10;4.40;;;2.53;;
4148;SDS011;2088;51.032;7.082;2022-07-01T06:05:37;4.37;;;1.37;;
4148;SDS011;2088;51.032;7.082;2022-07-01T06:08:04;2.90;;;1.97;;
4148;SDS011;2088;51.032;7.082;2022-07-01T06:10:31;5.73;;;1.67;;
4148;SDS011;2088;51.032;7.082;2022-07-01T06:12:59;2.07;;;1.60;;
4148;SDS011;2088;51.032;7.082;2022-07-01T06:15:26;2.87;;;1.37;;
4148;SDS011;2088;51.032;7.082;2022-07-01T06:17:53;2.10;;;1.60;;
4148;SDS011;2088;51.032;7.082;2022-07-01T06:20:19;7.63;;;2.70;;
4148;SDS011;2088;51.032;7.082;2022-07-01T06:22:46;1.60;;;1.50;;
4148;SDS011;2088;51.032;7.082;2022-07-01T06:25:12;1.60;;;1.50;;
4148;SDS011;2088;51.032;7.082;2022-07-01T06:27:39;2.13;;;1.13;;
4148;SDS011;2088;51.032;7.082;2022-07-01T06:30:08;2.87;;;1.53;;
4148;SDS011;2088;51.032;7.082;2022-07-01T06:32:36;4.97;;;1.27;;
4148;SDS011;2088;51.032;7.082;2022-07-01T06:35:03;6.30;;;1.70;;
4148;SDS011;2088;51.032;7.082;2022-07-01T06:37:30;2.30;;;1.80;;
4148;SDS011;2088;51.032;7.082;2022-07-01T06:39:58;9.83;;;1.80;;
4148;SDS011;2088;51.032;7.082;2022-07-01T06:42:25;5.80;;;2.20;;
4148;SDS011;2088;51.032;7.082;2022-07-01T06:44:51;2.13;;;1.40;;
4148;SDS011;2088;51.032;7.082;2022-07-01T06:47:19;2.40;;;2.20;;
4148;SDS011;2088;51.032;7.082;2022-07-01T06:49:46;3.80;;;1.63;;
4148;SDS011;2088;51.032;7.082;2022-07-01T06:52:13;15.80;;;2.63;;
4148;SDS011;2088;51.032;7.082;2022-07-01T06:54:39;2.97;;;1.20;;
4148;SDS011;2088;51.032;7.082;2022-07-01T06:57:06;2.70;;;1.80;;
4148;SDS011;2088;51.032;7.082;2022-07-01T06:59:33;1.17;;;0.97;;
4148;SDS011;2088;51.032;7.082;2022-07-01T07:01:59;3.43;;;2.20;;
4148;SDS011;2088;51.032;7.082;2022-07-01T07:04:27;1.30;;;1.03;;
4148;SDS011;2088;51.032;7.082;2022-07-01T07:06:54;1.63;;;1.53;;
4148;SDS011;2088;51.032;7.082;2022-07-01T07:09:20;1.80;;;1.60;;
4148;SDS011;2088;51.032;7.082;2022-07-01T07:11:47;4.70;;;2.30;;
4148;SDS011;2088;51.032;7.082;2022-07-01T07:14:13;2.33;;;1.13;;
4148;SDS011;2088;51.032;7.082;2022-07-01T07:16:40;4.30;;;1.90;;
4148;SDS011;2088;51.032;7.082;2022-07-01T07:19:07;1.30;;;1.20;;
4148;SDS011;2088;51.032;7.082;2022-07-01T07:21:36;1.63;;;1.47;;
4148;SDS011;2088;51.032;7.082;2022-07-01T07:24:03;3.00;;;1.80;;
4148;SDS011;2088;51.032;7.082;2022-07-01T07:26:30;1.73;;;1.30;;
4148;SDS011;2088;51.032;7.082;2022-07-01T07:28:56;6.53;;;1.40;;
4148;SDS011;2088;51.032;7.082;2022-07-01T07:31:23;2.00;;;1.80;;
4148;SDS011;2088;51.032;7.082;2022-07-01T07:33:49;1.90;;;1.80;;
4148;SDS011;2088;51.032;7.082;2022-07-01T07:36:15;10.73;;;1.63;;
4148;SDS011;2088;51.032;7.082;2022-07-01T07:38:43;4.33;;;1.57;;
4148;SDS011;2088;51.032;7.082;2022-07-01T07:41:10;6.50;;;2.33;;
4148;SDS011;2088;51.032;7.082;2022-07-01T07:43:36;17.53;;;1.90;;
4148;SDS011;2088;51.032;7.082;2022-07-01T07:46:03;2.73;;;1.33;;
4148;SDS011;2088;51.032;7.082;2022-07-01T07:48:30;1.67;;;1.50;;
4148;SDS011;2088;51.032;7.082;2022-07-01T07:50:56;1.27;;;1.17;;
4148;SDS011;2088;51.032;7.082;2022-07-01T07:53:22;1.83;;;1.57;;
4148;SDS011;2088;51.032;7.082;2022-07-01T07:55:51;1.47;;;1.20;;
4148;SDS011;2088;51.032;7.082;2022-07-01T07:58:17;2.20;;;1.73;;
4148;SDS011;2088;51.032;7.082;2022-07-01T08:00:44;2.03;;;1.37;;
4148;SDS011;2088;51.032;7.082;2022-07-01T08:03:10;1.97;;;1.73;;
4148;SDS011;2088;51.032;7.082;2022-07-01T08:05:37;3.83;;;1.87;;
4148;SDS011;2088;51.032;7.082;2022-07-01T08:08:04;2.37;;;1.33;;
4148;SDS011;2088;51.032;7.082;2022-07-01T08:10:30;1.80;;;1.00;;
4148;SDS011;2088;51.032;7.082;2022-07-01T08:12:58;2.83;;;2.07;;
4148;SDS011;2088;51.032;7.082;2022-07-01T08:15:29;1.73;;;1.33;;
4148;SDS011;2088;51.032;7.082;2022-07-01T08:17:56;2.00;;;1.77;;
4148;SDS011;2088;51.032;7.082;2022-07-01T08:20:22;3.87;;;1.97;;
4148;SDS011;2088;51.032;7.082;2022-07-01T08:22:49;2.10;;;1.90;;
4148;SDS011;2088;51.032;7.082;2022-07-01T08:25:15;2.60;;;2.13;;
4148;SDS011;2088;51.032;7.082;2022-07-01T08:27:42;3.40;;;1.43;;
4148;SDS011;2088;51.032;7.082;2022-07-01T08:30:10;1.90;;;1.80;;
4148;SDS011;2088;51.032;7.082;2022-07-01T08:32:37;1.60;;;1.50;;
4148;SDS011;2088;51.032;7.082;2022-07-01T08:35:04;1.77;;;1.67;;
4148;SDS011;2088;51.032;7.082;2022-07-01T08:37:31;7.63;;;2.00;;
4148;SDS011;2088;51.032;7.082;2022-07-01T08:39:57;1.60;;;1.50;;
4148;SDS011;2088;51.032;7.082;2022-07-01T08:42:25;1.43;;;1.33;;
4148;SDS011;2088;51.032;7.082;2022-07-01T08:44:51;2.03;;;1.30;;
4148;SDS011;2088;51.032;7.082;2022-07-01T08:47:19;1.73;;;1.63;;
4148;SDS011;2088;51.032;7.082;2022-07-01T08:49:46;4.70;;;1.60;;
4148;SDS011;2088;51.032;7.082;2022-07-01T08:52:12;1.30;;;1.10;;
4148;SDS011;2088;51.032;7.082;2022-07-01T08:54:39;3.23;;;1.20;;
4148;SDS011;2088;51.032;7.082;2022-07-01T08:57:06;7.93;;;1.70;;
4148;SDS011;2088;51.032;7.082;2022-07-01T08:59:33;5.90;;;1.60;;
4148;SDS011;2088;51.032;7.082;2022-07-01T09:02:00;1.50;;;1.13;;
4148;SDS011;2088;51.032;7.082;2022-07-01T09:04:31;2.97;;;1.77;;
4148;SDS011;2088;51.032;7.082;2022-07-01T09:07:01;1.57;;;1.33;;
4148;SDS011;2088;51.032;7.082;2022-07-01T09:09:32;2.00;;;1.67;;
4148;SDS011;2088;51.032;7.082;2022-07-01T09:12:00;4.00;;;1.20;;
4148;SDS011;2088;51.032;7.082;2022-07-01T09:14:27;1.70;;;1.53;;
4148;SDS011;2088;51.032;7.082;2022-07-01T09:16:56;1.90;;;1.57;;
4148;SDS011;2088;51.032;7.082;2022-07-01T09:19:24;1.77;;;1.67;;
4148;SDS011;2088;51.032;7.082;2022-07-01T09:21:54;3.00;;;2.40;;
4148;SDS011;2088;51.032;7.082;2022-07-01T09:24:23;20.63;;;2.07;;
4148;SDS011;2088;51.032;7.082;2022-07-01T09:26:55;1.97;;;1.60;;
4148;SDS011;2088;51.032;7.082;2022-07-01T09:29:26;14.83;;;2.43;;
4148;SDS011;2088;51.032;7.082;2022-07-01T09:31:56;3.77;;;1.40;;
4148;SDS011;2088;51.032;7.082;2022-07-01T09:34:23;8.40;;;1.80;;
4148;SDS011;2088;51.032;7.082;2022-07-01T09:36:55;2.47;;;1.90;;
4148;SDS011;2088;51.032;7.082;2022-07-01T09:39:23;3.67;;;1.27;;
4148;SDS011;2088;51.032;7.082;2022-07-01T09:41:49;2.10;;;1.77;;
4148;SDS011;2088;51.032;7.082;2022-07-01T09:44:20;2.80;;;1.87;;
4148;SDS011;2088;51.032;7.082;2022-07-01T09:46:53;2.53;;;1.63;;
4148;SDS011;2088;51.032;7.082;2022-07-01T09:49:21;9.87;;;2.23;;
4148;SDS011;2088;51.032;7.082;2022-07-01T09:51:48;1.70;;;1.60;;
4148;SDS011;2088;51.032;7.082;2022-07-01T09:54:16;3.93;;;2.23;;
4148;SDS011;2088;51.032;7.082;2022-07-01T09:56:43;5.00;;;2.20;;
4148;SDS011;2088;51.032;7.082;2022-07-01T09:59:10;1.60;;;1.50;;
4148;SDS011;2088;51.032;7.082;2022-07-01T10:01:37;2.23;;;1.97;;
4148;SDS011;2088;51.032;7.082;2022-07-01T10:04:06;2.00;;;1.30;;
4148;SDS011;2088;51.032;7.082;2022-07-01T10:06:37;1.50;;;1.20;;
4148;SDS011;2088;51.032;7.082;2022-07-01T10:09:23;1.67;;;1.57;;
4148;SDS011;2088;51.032;7.082;2022-07-01T10:12:17;1.20;;;1.10;;
4148;SDS011;2088;51.032;7.082;2022-07-01T10:14:57;1.33;;;1.23;;
4148;SDS011;2088;51.032;7.082;2022-07-01T10:17:28;1.50;;;1.13;;
4148;SDS011;2088;51.032;7.082;2022-07-01T10:19:57;1.10;;;1.00;;
4148;SDS011;2088;51.032;7.082;2022-07-01T10:22:35;4.80;;;1.27;;
4148;SDS011;2088;51.032;7.082;2022-07-01T10:28:22;3.03;;;1.53;;
4148;SDS011;2088;51.032;7.082;2022-07-01T10:30:51;2.90;;;1.30;;
4148;SDS011;2088;51.032;7.082;2022-07-01T10:36:09;1.97;;;1.77;;
4148;SDS011;2088;51.032;7.082;2022-07-01T10:41:39;1.50;;;1.40;;
4148;SDS011;2088;51.032;7.082;2022-07-01T10:44:08;2.40;;;2.20;;
4148;SDS011;2088;51.032;7.082;2022-07-01T10:46:40;5.90;;;1.83;;
4148;SDS011;2088;51.032;7.082;2022-07-01T10:49:09;1.83;;;1.57;;
4148;SDS011;2088;51.032;7.082;2022-07-01T10:51:48;1.90;;;1.60;;
4148;SDS011;2088;51.032;7.082;2022-07-01T10:57:21;2.17;;;1.70;;
4148;SDS011;2088;51.032;7.082;2022-07-01T11:03:07;2.20;;;1.53;;
4148;SDS011;2088;51.032;7.082;2022-07-01T11:05:45;3.40;;;2.10;;
4148;SDS011;2088;51.032;7.082;2022-07-01T11:08:13;2.80;;;1.77;;
4148;SDS011;2088;51.032;7.082;2022-07-01T11:10:40;2.20;;;1.93;;
4148;SDS011;2088;51.032;7.082;2022-07-01T11:13:08;2.23;;;1.87;;
4148;SDS011;2088;51.032;7.082;2022-07-01T11:15:40;3.37;;;1.60;;
4148;SDS011;2088;51.032;7.082;2022-07-01T11:18:08;2.50;;;1.73;;
4148;SDS011;2088;51.032;7.082;2022-07-01T11:20:35;4.23;;;2.03;;
4148;SDS011;2088;51.032;7.082;2022-07-01T11:23:01;2.63;;;2.00;;
4148;SDS011;2088;51.032;7.082;2022-07-01T11:25:29;2.77;;;2.03;;
4148;SDS011;2088;51.032;7.082;2022-07-01T11:27:56;1.60;;;1.50;;
4148;SDS011;2088;51.032;7.082;2022-07-01T11:30:23;3.00;;;1.87;;
4148;SDS011;2088;51.032;7.082;2022-07-01T11:32:51;1.67;;;1.33;;
4148;SDS011;2088;51.032;7.082;2022-07-01T11:35:20;1.87;;;1.50;;
4148;SDS011;2088;51.032;7.082;2022-07-01T11:38:06;3.57;;;1.63;;
4148;SDS011;2088;51.032;7.082;2022-07-01T11:40:52;2.10;;;1.70;;
4148;SDS011;2088;51.032;7.082;2022-07-01T11:43:19;2.87;;;1.80;;
4148;SDS011;2088;51.032;7.082;2022-07-01T11:45:46;3.50;;;1.83;;
4148;SDS011;2088;51.032;7.082;2022-07-01T11:48:20;1.63;;;1.53;;
4148;SDS011;2088;51.032;7.082;2022-07-01T11:50:54;4.20;;;2.00;;
4148;SDS011;2088;51.032;7.082;2022-07-01T11:53:20;2.03;;;1.73;;
4148;SDS011;2088;51.032;7.082;2022-07-01T11:55:48;2.13;;;1.80;;
4148;SDS011;2088;51.032;7.082;2022-07-01T11:58:14;1.63;;;1.47;;
4148;SDS011;2088;51.032;7.082;2022-07-01T12:00:41;1.57;;;1.47;;
4148;SDS011;2088;51.032;7.082;2022-07-01T12:03:07;3.33;;;1.37;;
4148;SDS011;2088;51.032;7.082;2022-07-01T12:05:37;2.90;;;1.43;;
4148;SDS011;2088;51.032;7.082;2022-07-01T12:08:04;1.30;;;1.20;;
4148;SDS011;2088;51.032;7.082;2022-07-01T12:10:31;1.70;;;1.30;;
4148;SDS011;2088;51.032;7.082;2022-07-01T12:12:58;1.60;;;1.50;;
4148;SDS011;2088;51.032;7.082;2022-07-01T12:15:25;11.83;;;1.87;;
4148;SDS011;2088;51.032;7.082;2022-07-01T12:18:04;3.03;;;1.50;;
4148;SDS011;2088;51.032;7.082;2022-07-01T12:20:31;3.00;;;1.37;;
4148;SDS011;2088;51.032;7.082;2022-07-01T12:23:11;2.23;;;1.30;;
4148;SDS011;2088;51.032;7.082;2022-07-01T12:25:38;1.63;;;1.30;;
4148;SDS011;2088;51.032;7.082;2022-07-01T12:28:05;2.23;;;2.03;;
4148;SDS011;2088;51.032;7.082;2022-07-01T12:30:31;3.57;;;1.30;;
4148;SDS011;2088;51.032;7.082;2022-07-01T12:33:07;5.90;;;1.83;;
4148;SDS011;2088;51.032;7.082;2022-07-01T12:35:35;4.57;;;1.23;;
4148;SDS011;2088;51.032;7.082;2022-07-01T12:38:15;1.80;;;1.50;;
4148;SDS011;2088;51.032;7.082;2022-07-01T12:40:42;20.20;;;1.33;;
4148;SDS011;2088;51.032;7.082;2022-07-01T12:43:21;8.50;;;1.90;;
4148;SDS011;2088;51.032;7.082;2022-07-01T12:45:49;1.40;;;0.80;;
4148;SDS011;2088;51.032;7.082;2022-07-01T12:48:15;1.30;;;0.80;;
4148;SDS011;2088;51.032;7.082;2022-07-01T12:50:42;2.10;;;1.17;;
4148;SDS011;2088;51.032;7.082;2022-07-01T12:53:11;1.40;;;0.90;;
4148;SDS011;2088;51.032;7.082;2022-07-01T12:55:44;1.53;;;0.80;;
4148;SDS011;2088;51.032;7.082;2022-07-01T12:58:13;1.20;;;0.90;;
4148;SDS011;2088;51.032;7.082;2022-07-01T13:00:41;1.30;;;0.60;;
4148;SDS011;2088;51.032;7.082;2022-07-01T13:03:08;1.93;;;1.10;;
4148;SDS011;2088;51.032;7.082;2022-07-01T13:05:36;1.30;;;0.77;;
4148;SDS011;2088;51.032;7.082;2022-07-01T13:08:04;3.67;;;0.90;;
4148;SDS011;2088;51.032;7.082;2022-07-01T13:10:32;1.60;;;0.67;;
4148;SDS011;2088;51.032;7.082;2022-07-01T13:13:00;2.07;;;1.00;;
4148;SDS011;2088;51.032;7.082;2022-07-01T13:15:27;2.17;;;1.00;;
4148;SDS011;2088;51.032;7.082;2022-07-01T13:17:54;1.00;;;0.73;;
4148;SDS011;2088;51.032;7.082;2022-07-01T13:20:20;1.00;;;0.67;;
4148;SDS011;2088;51.032;7.082;2022-07-01T13:22:47;4.10;;;1.17;;
4148;SDS011;2088;51.032;7.082;2022-07-01T13:25:14;1.50;;;1.00;;
4148;SDS011;2088;51.032;7.082;2022-07-01T13:27:41;1.40;;;0.67;;
4148;SDS011;2088;51.032;7.082;2022-07-01T13:30:10;1.10;;;0.67;;
4148;SDS011;2088;51.032;7.082;2022-07-01T13:32:38;1.63;;;0.70;;
4148;SDS011;2088;51.032;7.082;2022-07-01T13:35:06;1.30;;;0.70;;
4148;SDS011;2088;51.032;7.082;2022-07-01T13:37:33;1.50;;;0.63;;
4148;SDS011;2088;51.032;7.082;2022-07-01T13:40:00;2.70;;;0.70;;
4148;SDS011;2088;51.032;7.082;2022-07-01T13:42:27;0.90;;;0.50;;
4148;SDS011;2088;51.032;7.082;2022-07-01T13:44:53;1.90;;;0.97;;
4148;SDS011;2088;51.032;7.082;2022-07-01T13:47:22;1.87;;;1.07;;
4148;SDS011;2088;51.032;7.082;2022-07-01T13:49:49;1.40;;;0.80;;
4148;SDS011;2088;51.032;7.082;2022-07-01T13:52:16;6.10;;;0.70;;
4148;SDS011;2088;51.032;7.082;2022-07-01T13:54:42;3.00;;;0.77;;
4148;SDS011;2088;51.032;7.082;2022-07-01T13:57:09;4.37;;;0.70;;
4148;SDS011;2088;51.032;7.082;2022-07-01T13:59:35;2.07;;;0.60;;
4148;SDS011;2088;51.032;7.082;2022-07-01T14:02:02;1.90;;;0.67;;
4148;SDS011;2088;51.032;7.082;2022-07-01T14:04:31;0.90;;;0.50;;
4148;SDS011;2088;51.032;7.082;2022-07-01T14:06:58;1.20;;;0.63;;
4148;SDS011;2088;51.032;7.082;2022-07-01T14:09:24;4.20;;;1.63;;
4148;SDS011;2088;51.032;7.082;2022-07-01T14:11:51;1.23;;;0.60;;
4148;SDS011;2088;51.032;7.082;2022-07-01T14:14:17;1.77;;;0.60;;
4148;SDS011;2088;51.032;7.082;2022-07-01T14:16:44;4.53;;;0.80;;
4148;SDS011;2088;51.032;7.082;2022-07-01T14:19:10;1.13;;;0.77;;
4148;SDS011;2088;51.032;7.082;2022-07-01T14:21:38;2.80;;;0.73;;
4148;SDS011;2088;51.032;7.082;2022-07-01T14:24:05;1.47;;;0.93;;
4148;SDS011;2088;51.032;7.082;2022-07-01T14:26:32;1.80;;;0.93;;
4148;SDS011;2088;51.032;7.082;2022-07-01T14:28:59;1.27;;;0.87;;
4148;SDS011;2088;51.032;7.082;2022-07-01T14:31:25;1.20;;;0.67;;
4148;SDS011;2088;51.032;7.082;2022-07-01T14:33:52;1.20;;;0.67;;
4148;SDS011;2088;51.032;7.082;2022-07-01T14:36:18;0.93;;;0.60;;
4148;SDS011;2088;51.032;7.082;2022-07-01T14:38:46;1.77;;;0.77;;
4148;SDS011;2088;51.032;7.082;2022-07-01T14:41:13;1.33;;;1.03;;
4148;SDS011;2088;51.032;7.082;2022-07-01T14:43:39;1.00;;;0.80;;
4148;SDS011;2088;51.032;7.082;2022-07-01T14:46:06;2.17;;;1.10;;
4148;SDS011;2088;51.032;7.082;2022-07-01T14:48:34;1.40;;;0.80;;
4148;SDS011;2088;51.032;7.082;2022-07-01T14:51:03;1.27;;;0.70;;
4148;SDS011;2088;51.032;7.082;2022-07-01T14:53:30;1.10;;;0.80;;
4148;SDS011;2088;51.032;7.082;2022-07-01T14:55:58;1.87;;;0.87;;
4148;SDS011;2088;51.032;7.082;2022-07-01T14:58:24;1.20;;;0.77;;
4148;SDS011;2088;51.032;7.082;2022-07-01T15:00:51;5.23;;;0.90;;
4148;SDS011;2088;51.032;7.082;2022-07-01T15:03:17;0.97;;;0.70;;
4148;SDS011;2088;51.032;7.082;2022-07-01T15:05:44;1.30;;;0.70;;
4148;SDS011;2088;51.032;7.082;2022-07-01T15:08:11;3.20;;;0.70;;
4148;SDS011;2088;51.032;7.082;2022-07-01T15:10:39;1.57;;;0.70;;
4148;SDS011;2088;51.032;7.082;2022-07-01T15:13:07;2.17;;;0.90;;
4148;SDS011;2088;51.032;7.082;2022-07-01T15:15:33;1.00;;;0.60;;
4148;SDS011;2088;51.032;7.082;2022-07-01T15:18:00;1.23;;;0.60;;
4148;SDS011;2088;51.032;7.082;2022-07-01T15:20:26;0.90;;;0.60;;
4148;SDS011;2088;51.032;7.082;2022-07-01T15:22:53;5.53;;;0.77;;
4148;SDS011;2088;51.032;7.082;2022-07-01T15:25:20;1.10;;;0.60;;
4148;SDS011;2088;51.032;7.082;2022-07-01T15:27:47;1.00;;;0.67;;
4148;SDS011;2088;51.032;7.082;2022-07-01T15:30:15;1.80;;;0.97;;
4148;SDS011;2088;51.032;7.082;2022-07-01T15:32:43;1.43;;;0.83;;
4148;SDS011;2088;51.032;7.082;2022-07-01T15:35:09;1.33;;;0.60;;